createdAt,value
2018-07-31T07:13:47.617Z,991.73
2018-07-31T07:14:42.955Z,991.73
2018-07-31T07:15:42.912Z,991.72
2018-07-31T07:16:42.826Z,991.72
2018-07-31T07:17:42.745Z,991.72
2018-07-31T07:18:42.701Z,991.72
2018-07-31T07:19:42.625Z,991.78
2018-07-31T07:20:42.564Z,991.70
2018-07-31T07:21:42.501Z,991.79
2018-07-31T07:22:42.467Z,991.80
2018-07-31T07:23:42.368Z,991.78
2018-07-31T07:24:42.315Z,991.82
2018-07-31T07:25:42.249Z,991.84
2018-07-31T07:26:42.183Z,991.82
2018-07-31T07:27:42.130Z,991.80
2018-07-31T07:28:42.068Z,991.89
2018-07-31T07:29:41.995Z,991.84
2018-07-31T07:30:41.937Z,991.82
2018-07-31T07:31:41.871Z,991.89
2018-07-31T07:32:41.812Z,991.84
2018-07-31T07:33:41.856Z,991.84
2018-07-31T07:34:41.700Z,991.82
2018-07-31T07:35:41.638Z,991.84
2018-07-31T07:36:41.572Z,991.84
2018-07-31T07:37:41.524Z,991.88
2018-07-31T07:38:41.452Z,991.87
2018-07-31T07:39:41.402Z,991.87
2018-07-31T07:40:41.333Z,991.89
2018-07-31T07:41:41.272Z,991.90
2018-07-31T07:42:41.224Z,991.97
2018-07-31T07:43:41.181Z,991.93
2018-07-31T07:44:41.113Z,991.93
2018-07-31T07:45:41.037Z,991.97
2018-07-31T07:46:40.990Z,991.94
2018-07-31T07:47:40.925Z,991.95
2018-07-31T07:48:40.871Z,991.97
2018-07-31T07:49:40.803Z,991.95
2018-07-31T07:50:40.750Z,991.96
2018-07-31T07:51:40.698Z,991.99
2018-07-31T07:52:40.642Z,992.03
2018-07-31T07:53:40.579Z,992.01
2018-07-31T07:54:40.523Z,992.00
2018-07-31T07:55:40.452Z,991.94
2018-07-31T07:56:40.408Z,992.01
2018-07-31T07:57:40.335Z,991.98
2018-07-31T07:58:40.274Z,991.98
2018-07-31T07:59:40.227Z,992.02
2018-07-31T08:00:40.166Z,991.99
2018-07-31T08:01:40.117Z,991.98
2018-07-31T08:02:40.050Z,992.00
2018-07-31T08:03:39.999Z,992.02
2018-07-31T08:04:39.929Z,991.98
2018-07-31T08:05:39.890Z,991.99
2018-07-31T08:06:39.858Z,991.96
2018-07-31T08:07:39.765Z,992.02
2018-07-31T08:08:39.700Z,991.99
2018-07-31T08:09:39.700Z,991.98
2018-07-31T08:10:39.590Z,991.95
2018-07-31T08:11:39.529Z,992.00
2018-07-31T08:12:39.489Z,991.96
2018-07-31T08:13:39.412Z,991.99
2018-07-31T08:14:39.360Z,991.98
2018-07-31T08:15:39.314Z,992.01
2018-07-31T08:16:39.239Z,992.00
2018-07-31T08:17:39.206Z,992.04
2018-07-31T08:18:39.136Z,992.08
2018-07-31T08:19:39.071Z,992.04
2018-07-31T08:20:39.014Z,992.07
2018-07-31T08:21:38.965Z,992.06
2018-07-31T08:22:38.929Z,992.05
2018-07-31T08:23:38.856Z,992.06
2018-07-31T08:24:38.788Z,992.07
2018-07-31T08:25:38.729Z,992.05
2018-07-31T08:26:38.668Z,992.05
2018-07-31T08:27:38.628Z,992.06
2018-07-31T08:28:38.568Z,992.03
2018-07-31T08:29:38.495Z,992.02
2018-07-31T08:30:38.435Z,992.03
2018-07-31T08:31:38.389Z,992.05
2018-07-31T08:32:38.322Z,992.06
2018-07-31T08:33:38.399Z,992.00
2018-07-31T08:34:38.219Z,991.99
2018-07-31T08:35:38.156Z,992.02
2018-07-31T08:36:38.098Z,991.96
2018-07-31T08:37:38.044Z,991.98
2018-07-31T08:38:37.978Z,991.98
2018-07-31T08:39:37.931Z,991.96
2018-07-31T08:40:37.882Z,991.99
2018-07-31T08:41:37.812Z,991.98
2018-07-31T08:42:37.756Z,991.98
2018-07-31T08:43:37.693Z,991.97
2018-07-31T08:44:37.627Z,991.99
2018-07-31T08:45:37.578Z,991.98
2018-07-31T08:46:37.540Z,991.98
2018-07-31T08:47:37.471Z,991.94
2018-07-31T08:48:37.408Z,991.95
2018-07-31T08:49:37.364Z,991.93
2018-07-31T08:50:37.303Z,991.98
2018-07-31T08:51:37.232Z,991.95
2018-07-31T08:52:37.187Z,991.89
2018-07-31T08:53:37.120Z,991.92
2018-07-31T08:54:37.062Z,991.92
2018-07-31T08:55:37.061Z,991.93
2018-07-31T08:56:36.967Z,991.90
2018-07-31T08:57:36.891Z,991.96
2018-07-31T08:58:36.838Z,991.93
2018-07-31T08:59:36.782Z,991.92
2018-07-31T09:00:36.731Z,991.95
2018-07-31T09:01:36.676Z,991.93
2018-07-31T09:02:36.609Z,991.95
2018-07-31T09:03:36.561Z,991.97
2018-07-31T09:04:36.509Z,991.94
2018-07-31T09:05:36.480Z,991.95
2018-07-31T09:06:36.382Z,991.97
2018-07-31T09:07:36.325Z,991.98
2018-07-31T09:08:36.360Z,992.02
2018-07-31T09:09:36.218Z,991.93
2018-07-31T09:10:36.157Z,992.01
2018-07-31T09:11:36.109Z,991.98
2018-07-31T09:12:36.044Z,991.99
2018-07-31T09:13:35.987Z,991.98
2018-07-31T09:14:35.926Z,991.96
2018-07-31T09:15:35.883Z,991.98
2018-07-31T09:16:35.820Z,991.96
2018-07-31T09:17:35.829Z,991.92
2018-07-31T09:18:35.696Z,991.95
2018-07-31T09:19:35.652Z,991.96
2018-07-31T09:20:35.594Z,991.93
2018-07-31T09:21:35.534Z,991.95
2018-07-31T09:22:35.524Z,991.90
2018-07-31T09:23:35.429Z,991.91
2018-07-31T09:24:35.474Z,991.91
2018-07-31T09:25:35.303Z,991.94
2018-07-31T09:26:35.260Z,991.90
2018-07-31T09:27:35.192Z,991.96
2018-07-31T09:28:35.131Z,991.95
2018-07-31T09:29:35.070Z,991.89
2018-07-31T09:30:35.092Z,991.95
2018-07-31T09:31:34.966Z,991.92
2018-07-31T09:32:34.911Z,991.95
2018-07-31T09:33:34.850Z,991.87
2018-07-31T09:34:34.797Z,991.93
2018-07-31T09:35:34.749Z,991.94
2018-07-31T09:36:34.706Z,991.95
2018-07-31T09:37:34.629Z,991.95
2018-07-31T09:38:34.569Z,991.93
2018-07-31T09:39:34.502Z,991.92
2018-07-31T09:40:34.448Z,991.89
2018-07-31T09:41:34.390Z,991.91
2018-07-31T09:42:34.354Z,991.87
2018-07-31T09:43:34.283Z,991.83
2018-07-31T09:44:34.228Z,991.85
2018-07-31T09:45:34.225Z,991.87
2018-07-31T09:46:34.108Z,991.88
2018-07-31T09:47:34.065Z,991.90
2018-07-31T09:48:34.014Z,991.89
2018-07-31T09:49:33.949Z,991.90
2018-07-31T09:50:33.943Z,991.92
2018-07-31T09:51:33.837Z,991.91
2018-07-31T09:52:33.783Z,991.89
2018-07-31T09:53:33.716Z,991.93
2018-07-31T09:54:33.688Z,991.86
2018-07-31T09:55:33.605Z,991.90
2018-07-31T09:56:33.553Z,991.92
2018-07-31T09:57:33.497Z,991.92
2018-07-31T09:58:33.436Z,991.94
2018-07-31T09:59:33.392Z,991.95
2018-07-31T10:00:33.336Z,991.90
2018-07-31T10:01:33.263Z,991.91
2018-07-31T10:02:33.216Z,991.89
2018-07-31T10:03:33.148Z,991.94
2018-07-31T10:04:33.093Z,991.91
2018-07-31T10:05:33.046Z,991.92
2018-07-31T10:06:32.994Z,991.88
2018-07-31T10:07:32.930Z,991.93
2018-07-31T10:08:32.879Z,991.84
2018-07-31T10:09:32.816Z,991.84
2018-07-31T10:10:32.757Z,991.83
2018-07-31T10:11:32.697Z,991.81
2018-07-31T10:12:32.635Z,991.85
2018-07-31T10:13:32.596Z,991.82
2018-07-31T10:14:32.542Z,991.87
2018-07-31T10:15:32.487Z,991.87
2018-07-31T10:16:32.437Z,991.80
2018-07-31T10:17:32.400Z,991.79
2018-07-31T10:18:32.314Z,991.76
2018-07-31T10:19:32.247Z,991.74
2018-07-31T10:20:32.193Z,991.74
2018-07-31T10:21:32.138Z,991.74
2018-07-31T10:22:32.083Z,991.68
2018-07-31T10:23:32.031Z,991.71
2018-07-31T10:24:31.991Z,991.67
2018-07-31T10:25:31.931Z,991.69
2018-07-31T10:26:31.869Z,991.72
2018-07-31T10:27:31.813Z,991.67
2018-07-31T10:28:31.739Z,991.65
2018-07-31T10:29:31.688Z,991.70
2018-07-31T10:30:31.678Z,991.66
2018-07-31T10:31:31.567Z,991.64
2018-07-31T10:32:31.538Z,991.66
2018-07-31T10:33:31.463Z,991.65
2018-07-31T10:34:31.402Z,991.63
2018-07-31T10:35:31.343Z,991.59
2018-07-31T10:36:31.287Z,991.64
2018-07-31T10:37:31.254Z,991.59
2018-07-31T10:38:31.171Z,991.56
2018-07-31T10:39:31.133Z,991.56
2018-07-31T10:40:31.071Z,991.53
2018-07-31T10:41:31.019Z,991.49
2018-07-31T10:42:30.941Z,991.50
2018-07-31T10:43:30.898Z,991.53
2018-07-31T10:44:30.838Z,991.56
2018-07-31T10:45:30.781Z,991.55
2018-07-31T10:46:30.731Z,991.51
2018-07-31T10:47:30.676Z,991.51
2018-07-31T10:48:30.623Z,991.47
2018-07-31T10:49:30.568Z,991.46
2018-07-31T10:50:30.522Z,991.48
2018-07-31T10:51:30.437Z,991.48
2018-07-31T10:52:30.397Z,991.44
2018-07-31T10:53:30.345Z,991.40
2018-07-31T10:54:30.270Z,991.40
2018-07-31T10:55:30.224Z,991.38
2018-07-31T10:56:30.164Z,991.32
2018-07-31T10:57:30.107Z,991.39
2018-07-31T10:58:30.160Z,991.41
2018-07-31T10:59:30.004Z,991.39
2018-07-31T11:00:29.932Z,991.33
2018-07-31T11:01:29.891Z,991.30
2018-07-31T11:02:29.822Z,991.34
2018-07-31T11:03:29.774Z,991.33
2018-07-31T11:04:29.725Z,991.30
2018-07-31T11:05:29.669Z,991.33
2018-07-31T11:06:29.643Z,991.30
2018-07-31T11:07:29.545Z,991.32
2018-07-31T11:08:29.512Z,991.32
2018-07-31T11:09:29.456Z,991.33
2018-07-31T11:10:29.408Z,991.31
2018-07-31T11:11:29.327Z,991.31
2018-07-31T11:12:29.248Z,991.25
2018-07-31T11:13:29.196Z,991.27
2018-07-31T11:14:29.143Z,991.26
2018-07-31T11:15:29.095Z,991.24
2018-07-31T11:16:29.022Z,991.23
2018-07-31T11:17:28.972Z,991.20
2018-07-31T11:18:28.916Z,991.22
2018-07-31T11:19:28.864Z,991.22
2018-07-31T11:20:28.809Z,991.24
2018-07-31T11:21:28.752Z,991.19
2018-07-31T11:22:28.709Z,991.23
2018-07-31T11:23:28.641Z,991.12
2018-07-31T11:24:28.592Z,991.14
2018-07-31T11:25:28.545Z,991.13
2018-07-31T11:26:28.469Z,991.13
2018-07-31T11:27:28.481Z,991.10
2018-07-31T11:28:28.560Z,991.11
2018-07-31T11:29:28.317Z,991.09
2018-07-31T11:30:28.240Z,991.09
2018-07-31T11:31:28.191Z,991.07
2018-07-31T11:32:28.134Z,991.09
2018-07-31T11:33:28.079Z,991.08
2018-07-31T11:34:28.030Z,991.05
2018-07-31T11:35:27.982Z,991.07
2018-07-31T11:36:27.916Z,991.07
2018-07-31T11:37:27.859Z,991.01
2018-07-31T11:38:27.812Z,991.00
2018-07-31T11:39:27.744Z,990.98
2018-07-31T11:40:27.694Z,990.96
2018-07-31T11:41:27.633Z,990.98
2018-07-31T11:42:27.564Z,990.99
2018-07-31T11:43:27.516Z,990.98
2018-07-31T11:44:27.460Z,990.92
2018-07-31T11:45:27.398Z,990.97
2018-07-31T11:46:27.340Z,990.94
2018-07-31T11:47:27.289Z,990.91
2018-07-31T11:48:27.240Z,990.91
2018-07-31T11:49:27.177Z,990.95
2018-07-31T11:50:27.150Z,990.92
2018-07-31T11:51:27.070Z,990.91
2018-07-31T11:52:27.022Z,990.93
2018-07-31T11:53:26.991Z,990.89
2018-07-31T11:54:26.899Z,990.90
2018-07-31T11:55:26.844Z,990.89
2018-07-31T11:56:26.787Z,990.85
2018-07-31T11:57:26.736Z,990.83
2018-07-31T11:58:26.668Z,990.87
2018-07-31T11:59:26.635Z,990.85
2018-07-31T12:00:26.571Z,990.84
2018-07-31T12:01:26.509Z,990.82
2018-07-31T12:02:26.449Z,990.79
2018-07-31T12:03:26.402Z,990.79
2018-07-31T12:04:26.346Z,990.76
2018-07-31T12:05:26.286Z,990.78
2018-07-31T12:06:26.248Z,990.76
2018-07-31T12:07:26.193Z,990.74
2018-07-31T12:08:26.114Z,990.73
2018-07-31T12:09:26.069Z,990.68
2018-07-31T12:10:26.012Z,990.73
2018-07-31T12:11:25.987Z,990.68
2018-07-31T12:12:25.911Z,990.65
2018-07-31T12:13:25.835Z,990.63
2018-07-31T12:14:25.786Z,990.64
2018-07-31T12:15:25.726Z,990.63
2018-07-31T12:16:25.661Z,990.63
2018-07-31T12:17:25.618Z,990.64
2018-07-31T12:18:25.547Z,990.62
2018-07-31T12:19:25.504Z,990.60
2018-07-31T12:20:25.439Z,990.60
2018-07-31T12:21:25.394Z,990.61
2018-07-31T12:22:25.332Z,990.56
2018-07-31T12:23:25.264Z,990.54
2018-07-31T12:24:25.245Z,990.54
2018-07-31T12:25:25.156Z,990.49
2018-07-31T12:26:25.109Z,990.51
2018-07-31T12:27:25.079Z,990.50
2018-07-31T12:28:24.998Z,990.51
2018-07-31T12:29:24.932Z,990.45
2018-07-31T12:30:24.903Z,990.42
2018-07-31T12:31:24.827Z,990.40
2018-07-31T12:32:24.768Z,990.37
2018-07-31T12:33:24.716Z,990.34
2018-07-31T12:34:24.650Z,990.31
2018-07-31T12:35:24.593Z,990.36
2018-07-31T12:36:24.540Z,990.29
2018-07-31T12:37:24.500Z,990.29
2018-07-31T12:38:24.461Z,990.26
2018-07-31T12:39:24.393Z,990.28
2018-07-31T12:40:24.316Z,990.27
2018-07-31T12:41:24.277Z,990.27
2018-07-31T12:42:24.199Z,990.27
2018-07-31T12:43:24.148Z,990.28
2018-07-31T12:44:24.090Z,990.25
2018-07-31T12:45:24.039Z,990.24
2018-07-31T12:46:23.982Z,990.24
2018-07-31T12:47:23.934Z,990.24
2018-07-31T12:48:23.866Z,990.24
2018-07-31T12:49:23.810Z,990.16
2018-07-31T12:50:23.776Z,990.13
2018-07-31T12:51:23.696Z,990.11
2018-07-31T12:52:23.688Z,990.12
2018-07-31T12:53:23.575Z,990.09
2018-07-31T12:54:23.528Z,990.14
2018-07-31T12:55:23.480Z,990.11
2018-07-31T12:56:23.414Z,990.04
2018-07-31T12:57:23.357Z,990.10
2018-07-31T12:58:23.332Z,990.11
2018-07-31T12:59:23.247Z,990.07
2018-07-31T13:00:23.199Z,990.05
2018-07-31T13:01:23.163Z,990.07
2018-07-31T13:02:23.084Z,990.04
2018-07-31T13:03:23.020Z,990.08
2018-07-31T13:04:22.965Z,990.01
2018-07-31T13:05:22.908Z,990.09
2018-07-31T13:06:22.852Z,990.06
2018-07-31T13:07:22.804Z,990.02
2018-07-31T13:08:22.748Z,990.01
2018-07-31T13:09:22.686Z,990.04
2018-07-31T13:10:22.637Z,989.98
2018-07-31T13:11:22.582Z,989.97
2018-07-31T13:12:22.513Z,989.98
2018-07-31T13:13:22.575Z,989.95
2018-07-31T13:14:24.328Z,989.93
2018-07-31T13:15:22.348Z,989.94
2018-07-31T13:16:22.311Z,989.90
2018-07-31T13:17:22.231Z,989.92
2018-07-31T13:18:22.177Z,989.92
2018-07-31T13:19:22.130Z,989.91
2018-07-31T13:20:22.074Z,989.89
2018-07-31T13:21:22.017Z,989.85
2018-07-31T13:22:21.967Z,989.84
2018-07-31T13:23:21.896Z,989.86
2018-07-31T13:24:21.841Z,989.82
2018-07-31T13:25:21.807Z,989.86
2018-07-31T13:26:21.730Z,989.86
2018-07-31T13:27:21.700Z,989.86
2018-07-31T13:28:21.624Z,989.82
2018-07-31T13:29:21.566Z,989.84
2018-07-31T13:30:21.502Z,989.80
2018-07-31T13:31:21.457Z,989.81
2018-07-31T13:32:21.400Z,989.80
2018-07-31T13:33:21.341Z,989.75
2018-07-31T13:34:21.291Z,989.78
2018-07-31T13:35:21.239Z,989.72
2018-07-31T13:36:21.224Z,989.69
2018-07-31T13:37:21.123Z,989.68
2018-07-31T13:38:21.103Z,989.68
2018-07-31T13:39:21.018Z,989.71
2018-07-31T13:40:20.949Z,989.71
2018-07-31T13:41:20.900Z,989.69
2018-07-31T13:42:20.858Z,989.68
2018-07-31T13:43:20.776Z,989.71
2018-07-31T13:44:20.753Z,989.70
2018-07-31T13:45:20.672Z,989.66
2018-07-31T13:46:20.611Z,989.64
2018-07-31T13:47:20.567Z,989.59
2018-07-31T13:48:20.494Z,989.58
2018-07-31T13:49:20.438Z,989.56
2018-07-31T13:50:20.393Z,989.53
2018-07-31T13:51:20.333Z,989.57
2018-07-31T13:52:20.271Z,989.59
2018-07-31T13:53:20.210Z,989.55
2018-07-31T13:54:20.162Z,989.50
2018-07-31T13:55:20.141Z,989.48
2018-07-31T13:56:20.060Z,989.44
2018-07-31T13:57:19.995Z,989.45
2018-07-31T13:58:19.942Z,989.47
2018-07-31T13:59:19.899Z,989.38
2018-07-31T14:00:19.828Z,989.40
2018-07-31T14:01:19.779Z,989.44
2018-07-31T14:02:19.753Z,989.39
2018-07-31T14:03:19.654Z,989.42
2018-07-31T14:04:19.597Z,989.40
2018-07-31T14:05:19.558Z,989.37
2018-07-31T14:06:19.498Z,989.39
2018-07-31T14:07:19.438Z,989.36
2018-07-31T14:08:19.384Z,989.38
2018-07-31T14:09:19.327Z,989.36
2018-07-31T14:10:19.288Z,989.34
2018-07-31T14:11:19.228Z,989.35
2018-07-31T14:12:19.176Z,989.30
2018-07-31T14:13:19.108Z,989.29
2018-07-31T14:14:19.037Z,989.28
2018-07-31T14:15:18.997Z,989.28
2018-07-31T14:16:18.930Z,989.27
2018-07-31T14:17:18.872Z,989.24
2018-07-31T14:18:18.869Z,989.27
2018-07-31T14:19:18.769Z,989.20
2018-07-31T14:20:18.705Z,989.22
2018-07-31T14:21:18.658Z,989.22
2018-07-31T14:22:18.601Z,989.18
2018-07-31T14:23:18.535Z,989.20
2018-07-31T14:24:18.516Z,989.24
2018-07-31T14:25:18.421Z,989.20
2018-07-31T14:26:18.368Z,989.19
2018-07-31T14:27:18.353Z,989.17
2018-07-31T14:28:18.268Z,989.16
2018-07-31T14:29:18.200Z,989.12
2018-07-31T14:30:18.153Z,989.05
2018-07-31T14:31:18.091Z,989.10
2018-07-31T14:32:18.051Z,989.04
2018-07-31T14:33:17.981Z,989.06
2018-07-31T14:34:17.920Z,989.03
2018-07-31T14:35:17.859Z,989.04
2018-07-31T14:36:17.805Z,989.02
2018-07-31T14:37:17.751Z,989.03
2018-07-31T14:38:17.696Z,989.02
2018-07-31T14:39:17.659Z,989.06
2018-07-31T14:40:17.591Z,989.08
2018-07-31T14:41:17.532Z,988.97
2018-07-31T14:42:17.476Z,988.95
2018-07-31T14:43:17.411Z,988.95
2018-07-31T14:44:17.359Z,988.89
2018-07-31T14:45:17.314Z,988.90
2018-07-31T14:46:17.245Z,988.93
2018-07-31T14:47:17.192Z,988.92
2018-07-31T14:48:17.160Z,988.88
2018-07-31T14:49:17.077Z,988.90
2018-07-31T14:50:17.023Z,988.89
2018-07-31T14:51:17.002Z,988.86
2018-07-31T14:52:16.909Z,988.81
2018-07-31T14:53:16.859Z,988.78
2018-07-31T14:54:16.803Z,988.83
2018-07-31T14:55:16.740Z,988.78
2018-07-31T14:56:16.681Z,988.78
2018-07-31T14:57:16.640Z,988.77
2018-07-31T14:58:16.578Z,988.79
2018-07-31T14:59:16.531Z,988.79
2018-07-31T15:00:16.490Z,988.76
2018-07-31T15:01:16.421Z,988.79
2018-07-31T15:02:16.363Z,988.75
2018-07-31T15:03:16.293Z,988.79
2018-07-31T15:04:16.238Z,988.76
2018-07-31T15:05:16.197Z,988.75
2018-07-31T15:06:16.123Z,988.74
2018-07-31T15:07:16.080Z,988.74
2018-07-31T15:08:16.015Z,988.69
2018-07-31T15:09:15.959Z,988.71
2018-07-31T15:10:15.906Z,988.69
2018-07-31T15:11:15.995Z,988.71
2018-07-31T15:12:15.788Z,988.73
2018-07-31T15:13:15.730Z,988.70
2018-07-31T15:14:15.691Z,988.68
2018-07-31T15:15:15.629Z,988.69
2018-07-31T15:16:15.570Z,988.70
2018-07-31T15:17:15.519Z,988.65
2018-07-31T15:18:15.455Z,988.67
2018-07-31T15:19:15.429Z,988.63
2018-07-31T15:20:15.339Z,988.63
2018-07-31T15:21:15.337Z,988.63
2018-07-31T15:22:15.233Z,988.61
2018-07-31T15:23:15.190Z,988.59
2018-07-31T15:24:15.132Z,988.56
2018-07-31T15:25:15.076Z,988.56
2018-07-31T15:26:15.004Z,988.56
2018-07-31T15:27:14.956Z,988.55
2018-07-31T15:28:14.999Z,988.58
2018-07-31T15:29:14.851Z,988.58
2018-07-31T15:30:14.784Z,988.60
2018-07-31T15:31:14.734Z,988.59
2018-07-31T15:32:14.682Z,988.59
2018-07-31T15:33:14.639Z,988.55
2018-07-31T15:34:14.568Z,988.57
2018-07-31T15:35:14.523Z,988.61
2018-07-31T15:36:14.467Z,988.57
2018-07-31T15:37:14.398Z,988.55
2018-07-31T15:38:14.343Z,988.56
2018-07-31T15:39:14.301Z,988.52
2018-07-31T15:40:14.232Z,988.51
2018-07-31T15:41:14.181Z,988.52
2018-07-31T15:42:14.114Z,988.53
2018-07-31T15:43:14.068Z,988.50
2018-07-31T15:44:14.006Z,988.50
2018-07-31T15:45:13.946Z,988.51
2018-07-31T15:46:13.920Z,988.51
2018-07-31T15:47:13.832Z,988.53
2018-07-31T15:48:13.902Z,988.55
2018-07-31T15:49:13.729Z,988.50
2018-07-31T15:50:13.677Z,988.50
2018-07-31T15:51:13.611Z,988.49
2018-07-31T15:52:13.565Z,988.49
2018-07-31T15:53:13.496Z,988.47
2018-07-31T15:54:13.459Z,988.48
2018-07-31T15:55:13.394Z,988.44
2018-07-31T15:56:13.350Z,988.40
2018-07-31T15:57:13.287Z,988.43
2018-07-31T15:58:13.225Z,988.41
2018-07-31T15:59:13.177Z,988.44
2018-07-31T16:00:13.131Z,988.40
2018-07-31T16:01:13.098Z,988.45
2018-07-31T16:02:12.999Z,988.44
2018-07-31T16:03:12.960Z,988.44
2018-07-31T16:04:12.886Z,988.45
2018-07-31T16:05:12.847Z,988.44
2018-07-31T16:06:12.772Z,988.46
2018-07-31T16:07:12.728Z,988.44
2018-07-31T16:08:12.710Z,988.46
2018-07-31T16:09:12.621Z,988.45
2018-07-31T16:10:12.556Z,988.41
2018-07-31T16:11:12.508Z,988.44
2018-07-31T16:12:12.449Z,988.44
2018-07-31T16:13:12.393Z,988.45
2018-07-31T16:14:12.353Z,988.42
2018-07-31T16:15:12.295Z,988.41
2018-07-31T16:16:12.231Z,988.42
2018-07-31T16:17:12.175Z,988.41
2018-07-31T16:18:12.118Z,988.40
2018-07-31T16:19:12.059Z,988.42
2018-07-31T16:20:12.012Z,988.39
2018-07-31T16:21:11.952Z,988.32
2018-07-31T16:22:11.891Z,988.35
2018-07-31T16:23:11.893Z,988.37
2018-07-31T16:24:11.773Z,988.34
2018-07-31T16:25:11.721Z,988.34
2018-07-31T16:26:11.687Z,988.35
2018-07-31T16:27:11.626Z,988.32
2018-07-31T16:28:11.570Z,988.30
2018-07-31T16:29:11.495Z,988.29
2018-07-31T16:30:11.443Z,988.32
2018-07-31T16:31:11.394Z,988.34
2018-07-31T16:32:11.333Z,988.28
2018-07-31T16:33:11.313Z,988.32
2018-07-31T16:34:11.226Z,988.30
2018-07-31T16:35:11.165Z,988.30
2018-07-31T16:36:11.109Z,988.32
2018-07-31T16:37:11.064Z,988.28
2018-07-31T16:38:11.016Z,988.33
2018-07-31T16:39:10.953Z,988.29
2018-07-31T16:40:10.893Z,988.31
2018-07-31T16:41:10.853Z,988.32
2018-07-31T16:42:10.789Z,988.30
2018-07-31T16:43:10.722Z,988.30
2018-07-31T16:44:10.668Z,988.29
2018-07-31T16:45:10.608Z,988.29
2018-07-31T16:46:10.615Z,988.31
2018-07-31T16:47:10.509Z,988.32
2018-07-31T16:48:10.455Z,988.30
2018-07-31T16:49:10.569Z,988.27
2018-07-31T16:50:10.360Z,988.26
2018-07-31T16:51:10.274Z,988.25
2018-07-31T16:52:10.229Z,988.24
2018-07-31T16:53:10.167Z,988.22
2018-07-31T16:54:10.114Z,988.22
2018-07-31T16:55:10.072Z,988.25
2018-07-31T16:56:10.008Z,988.22
2018-07-31T16:57:09.944Z,988.24
2018-07-31T16:58:09.884Z,988.26
2018-07-31T16:59:09.842Z,988.25
2018-07-31T17:00:09.772Z,988.24
2018-07-31T17:01:09.713Z,988.27
2018-07-31T17:02:09.660Z,988.28
2018-07-31T17:03:09.621Z,988.28
2018-07-31T17:04:09.594Z,988.26
2018-07-31T17:05:09.493Z,988.25
2018-07-31T17:06:09.470Z,988.21
2018-07-31T17:07:09.389Z,988.28
2018-07-31T17:08:09.333Z,988.24
2018-07-31T17:09:09.272Z,988.28
2018-07-31T17:10:09.220Z,988.29
2018-07-31T17:11:09.157Z,988.27
2018-07-31T17:12:09.116Z,988.27
2018-07-31T17:13:09.051Z,988.29
2018-07-31T17:14:08.999Z,988.29
2018-07-31T17:15:08.950Z,988.26
2018-07-31T17:16:08.882Z,988.26
2018-07-31T17:17:08.845Z,988.23
2018-07-31T17:18:08.788Z,988.26
2018-07-31T17:19:08.720Z,988.26
2018-07-31T17:20:08.668Z,988.28
2018-07-31T17:21:08.608Z,988.29
2018-07-31T17:22:08.556Z,988.26
2018-07-31T17:23:08.494Z,988.30
2018-07-31T17:24:08.437Z,988.30
2018-07-31T17:25:08.397Z,988.28
2018-07-31T17:26:08.343Z,988.29
2018-07-31T17:27:08.286Z,988.29
2018-07-31T17:28:08.226Z,988.30
2018-07-31T17:29:08.161Z,988.32
2018-07-31T17:30:08.119Z,988.34
2018-07-31T17:31:08.063Z,988.35
2018-07-31T17:32:07.996Z,988.35
2018-07-31T17:33:07.963Z,988.35
2018-07-31T17:34:07.888Z,988.34
2018-07-31T17:35:07.826Z,988.36
2018-07-31T17:36:07.789Z,988.33
2018-07-31T17:37:07.730Z,988.34
2018-07-31T17:38:07.662Z,988.33
2018-07-31T17:39:07.607Z,988.31
2018-07-31T17:40:07.569Z,988.34
2018-07-31T17:41:07.504Z,988.31
2018-07-31T17:42:07.448Z,988.34
2018-07-31T17:43:07.391Z,988.33
2018-07-31T17:44:07.327Z,988.34
2018-07-31T17:45:07.276Z,988.35
2018-07-31T17:46:07.221Z,988.34
2018-07-31T17:47:07.154Z,988.34
2018-07-31T17:48:07.102Z,988.37
2018-07-31T17:49:07.050Z,988.36
2018-07-31T17:50:06.990Z,988.35
2018-07-31T17:51:06.942Z,988.35
2018-07-31T17:52:06.890Z,988.36
2018-07-31T17:53:06.831Z,988.33
2018-07-31T17:54:06.779Z,988.36
2018-07-31T17:55:06.706Z,988.38
2018-07-31T17:56:06.673Z,988.40
2018-07-31T17:57:06.603Z,988.39
2018-07-31T17:58:06.559Z,988.38
2018-07-31T17:59:06.495Z,988.41
2018-07-31T18:00:06.440Z,988.39
2018-07-31T18:01:06.387Z,988.38
2018-07-31T18:02:06.334Z,988.38
2018-07-31T18:03:06.272Z,988.41
2018-07-31T18:04:06.216Z,988.37
2018-07-31T18:05:06.201Z,988.43
2018-07-31T18:06:06.109Z,988.48
2018-07-31T18:07:06.064Z,988.48
2018-07-31T18:08:05.997Z,988.47
2018-07-31T18:09:05.941Z,988.51
2018-07-31T18:10:05.879Z,988.49
2018-07-31T18:11:05.833Z,988.52
2018-07-31T18:12:05.773Z,988.51
2018-07-31T18:13:05.721Z,988.56
2018-07-31T18:14:05.722Z,988.54
2018-07-31T18:15:05.606Z,988.53
2018-07-31T18:16:05.551Z,988.58
2018-07-31T18:17:05.498Z,988.59
2018-07-31T18:18:05.444Z,988.65
2018-07-31T18:19:05.413Z,988.66
2018-07-31T18:20:05.337Z,988.66
2018-07-31T18:21:05.308Z,988.65
2018-07-31T18:22:05.217Z,988.67
2018-07-31T18:23:05.152Z,988.67
2018-07-31T18:24:05.166Z,988.70
2018-07-31T18:25:05.055Z,988.69
2018-07-31T18:26:04.983Z,988.69
2018-07-31T18:27:04.994Z,988.71
2018-07-31T18:28:04.873Z,988.71
2018-07-31T18:29:04.851Z,988.73
2018-07-31T18:30:04.768Z,988.68
2018-07-31T18:31:04.714Z,988.72
2018-07-31T18:32:04.652Z,988.77
2018-07-31T18:33:04.603Z,988.72
2018-07-31T18:34:04.541Z,988.75
2018-07-31T18:35:04.560Z,988.73
2018-07-31T18:36:04.428Z,988.74
2018-07-31T18:37:04.406Z,988.78
2018-07-31T18:38:04.308Z,988.79
2018-07-31T18:39:04.255Z,988.76
2018-07-31T18:40:04.204Z,988.75
2018-07-31T18:41:04.167Z,988.74
2018-07-31T18:42:04.090Z,988.75
2018-07-31T18:43:04.020Z,988.76
2018-07-31T18:44:03.982Z,988.81
2018-07-31T18:45:03.907Z,988.78
2018-07-31T18:46:03.862Z,988.71
2018-07-31T18:47:03.853Z,988.79
2018-07-31T18:48:03.748Z,988.77
2018-07-31T18:49:03.706Z,988.79
2018-07-31T18:50:03.644Z,988.80
2018-07-31T18:51:03.574Z,988.80
2018-07-31T18:52:03.518Z,988.80
2018-07-31T18:53:03.465Z,988.86
2018-07-31T18:54:03.405Z,988.85
2018-07-31T18:55:03.358Z,988.89
2018-07-31T18:56:03.300Z,988.90
2018-07-31T18:57:03.233Z,988.87
2018-07-31T18:58:03.184Z,988.93
2018-07-31T18:59:03.118Z,988.94
2018-07-31T19:00:03.069Z,988.92
2018-07-31T19:01:03.117Z,988.95
2018-07-31T19:02:02.952Z,988.94
2018-07-31T19:03:02.900Z,989.00
2018-07-31T19:04:02.849Z,989.00
2018-07-31T19:05:02.775Z,988.97
2018-07-31T19:06:02.727Z,988.99
2018-07-31T19:07:02.671Z,989.07
2018-07-31T19:08:02.613Z,989.06
2018-07-31T19:09:02.543Z,988.99
2018-07-31T19:10:02.505Z,989.02
2018-07-31T19:11:02.440Z,989.00
2018-07-31T19:12:02.401Z,988.98
2018-07-31T19:13:02.382Z,988.99
2018-07-31T19:14:02.266Z,989.02
2018-07-31T19:15:02.204Z,989.02
2018-07-31T19:16:02.151Z,989.05
2018-07-31T19:17:02.093Z,989.05
2018-07-31T19:18:02.032Z,989.05
2018-07-31T19:19:01.988Z,989.05
2018-07-31T19:20:01.925Z,989.10
2018-07-31T19:21:01.867Z,989.06
2018-07-31T19:22:01.801Z,989.04
2018-07-31T19:23:01.761Z,989.11
2018-07-31T19:24:01.689Z,989.13
2018-07-31T19:25:01.626Z,989.15
2018-07-31T19:26:01.583Z,989.11
2018-07-31T19:27:01.519Z,989.11
2018-07-31T19:28:01.528Z,989.12
2018-07-31T19:29:01.400Z,989.10
2018-07-31T19:30:01.344Z,989.14
2018-07-31T19:31:01.288Z,989.12
2018-07-31T19:32:01.220Z,989.16
2018-07-31T19:33:01.192Z,989.10
2018-07-31T19:34:01.177Z,989.13
2018-07-31T19:35:01.069Z,989.14
2018-07-31T19:36:00.989Z,989.12
2018-07-31T19:37:00.939Z,989.18
2018-07-31T19:38:00.888Z,989.13
2018-07-31T19:39:00.833Z,989.13
2018-07-31T19:40:00.773Z,989.14
2018-07-31T19:41:00.712Z,989.11